createdAt,value
2023-08-12T00:00:23.020Z,99057.42
2023-08-12T00:02:47.539Z,99056.84
2023-08-12T00:04:50.220Z,99055.77
2023-08-12T00:06:52.946Z,99054.55
2023-08-12T00:08:56.453Z,99053.70
2023-08-12T00:10:59.227Z,99052.52
2023-08-12T00:13:03.230Z,99058.20
2023-08-12T00:15:11.743Z,99051.93
2023-08-12T00:17:14.506Z,99050.48
2023-08-12T00:19:22.650Z,99049.58
2023-08-12T00:21:27.396Z,99050.16
2023-08-12T00:23:31.994Z,99052.24
2023-08-12T00:25:34.796Z,99052.23
2023-08-12T00:27:38.990Z,99052.00
2023-08-12T00:29:42.801Z,99054.68
2023-08-12T00:31:45.829Z,99051.86
2023-08-12T00:33:49.617Z,99054.38
2023-08-12T00:35:52.805Z,99049.20
2023-08-12T00:37:56.627Z,99050.70
2023-08-12T00:39:59.836Z,99051.33
2023-08-12T00:42:04.255Z,99046.20
2023-08-12T00:44:08.220Z,99045.27
2023-08-12T00:46:14.623Z,99045.87
2023-08-12T00:48:18.992Z,99047.21
2023-08-12T00:50:23.592Z,99045.56
2023-08-12T00:52:27.109Z,99042.38
2023-08-12T00:54:30.672Z,99043.95
2023-08-12T00:56:36.796Z,99042.02
2023-08-12T00:58:40.970Z,99042.06
2023-08-12T01:00:43.932Z,99041.91
2023-08-12T01:02:56.469Z,99042.59
2023-08-12T01:05:00.197Z,99041.70
2023-08-12T01:07:04.751Z,99042.09
2023-08-12T01:09:11.174Z,99041.56
2023-08-12T01:11:20.543Z,99037.61
2023-08-12T01:14:08.913Z,99031.14
2023-08-12T01:16:21.033Z,99026.66
2023-08-12T01:18:32.599Z,99028.05
2023-08-12T01:20:36.857Z,99026.92
2023-08-12T01:22:41.763Z,99026.56
2023-08-12T01:24:45.771Z,99020.42
2023-08-12T01:26:50.025Z,99020.45
2023-08-12T01:28:54.502Z,99019.65
2023-08-12T01:31:03.590Z,99015.54
2023-08-12T01:33:13.450Z,99010.88
2023-08-12T01:35:21.056Z,99008.73
2023-08-12T01:37:33.415Z,99001.35
2023-08-12T01:39:38.874Z,99003.94
2023-08-12T01:41:41.778Z,98999.77
2023-08-12T01:43:45.732Z,98998.08
2023-08-12T01:45:48.475Z,98992.59
2023-08-12T01:47:52.445Z,98992.41
2023-08-12T01:50:00.569Z,98987.98
2023-08-12T01:52:03.961Z,98983.56
2023-08-12T01:54:07.134Z,98982.59
2023-08-12T01:56:11.078Z,98982.42
2023-08-12T01:58:16.027Z,98986.48
2023-08-12T02:00:20.914Z,98986.51
2023-08-12T02:02:25.772Z,98983.27
2023-08-12T02:04:32.304Z,98982.52
2023-08-12T02:06:35.551Z,98977.48
2023-08-12T02:08:39.342Z,98972.58
2023-08-12T02:10:44.307Z,98975.49
2023-08-12T02:12:47.173Z,98971.98
2023-08-12T02:14:49.887Z,98974.55
2023-08-12T02:16:56.194Z,98978.46
2023-08-12T02:18:58.791Z,98975.20
2023-08-12T02:21:05.873Z,98966.95
2023-08-12T02:23:09.727Z,98969.27
2023-08-12T02:25:13.514Z,98966.42
2023-08-12T02:27:16.790Z,98964.55
2023-08-12T02:29:19.587Z,98959.70
2023-08-12T02:31:22.197Z,98955.75
2023-08-12T02:33:27.079Z,98951.27
2023-08-12T02:35:31.282Z,98945.86
2023-08-12T02:37:36.369Z,98940.39
2023-08-12T02:39:40.181Z,98939.83
2023-08-12T02:41:43.071Z,98943.44
2023-08-12T02:43:46.898Z,98940.65
2023-08-12T02:45:49.667Z,98941.23
2023-08-12T02:47:53.155Z,98939.03
2023-08-12T02:49:57.865Z,98939.55
2023-08-12T02:52:03.818Z,98935.77
2023-08-12T02:54:06.496Z,98933.74
2023-08-12T02:56:09.909Z,98934.31
2023-08-12T02:58:14.496Z,98936.11
2023-08-12T03:00:18.817Z,98938.18
2023-08-12T03:02:21.919Z,98937.55
2023-08-12T03:04:26.323Z,98935.76
2023-08-12T03:06:30.097Z,98935.13
2023-08-12T03:08:34.533Z,98934.42
2023-08-12T03:10:39.454Z,98931.64
2023-08-12T03:12:43.687Z,98931.08
2023-08-12T03:14:48.714Z,98926.36
2023-08-12T03:16:52.320Z,98924.98
2023-08-12T03:18:55.402Z,98927.54
2023-08-12T03:20:58.634Z,98928.27
2023-08-12T03:23:01.650Z,98930.73
2023-08-12T03:25:05.959Z,98931.30
2023-08-12T03:27:09.683Z,98937.95
2023-08-12T03:29:17.721Z,98935.39
2023-08-12T03:31:20.821Z,98936.48
2023-08-12T03:33:28.161Z,98937.88
2023-08-12T03:35:31.375Z,98940.64
2023-08-12T03:37:36.908Z,98944.61
2023-08-12T03:39:42.325Z,98948.03
2023-08-12T03:41:47.423Z,98950.88
2023-08-12T03:43:51.100Z,98955.27
2023-08-12T03:45:54.209Z,98953.51
2023-08-12T03:47:58.219Z,98953.08
2023-08-12T03:50:01.427Z,98947.84
2023-08-12T03:52:09.251Z,98950.85
2023-08-12T03:54:12.954Z,98950.92
2023-08-12T03:56:17.721Z,98942.85
2023-08-12T03:58:21.065Z,98942.15
2023-08-12T04:00:25.847Z,98936.23
2023-08-12T04:02:32.464Z,98936.38
2023-08-12T04:04:37.234Z,98935.56
2023-08-12T04:06:40.228Z,98932.77
2023-08-12T04:08:43.679Z,98931.42
2023-08-12T04:10:48.777Z,98925.94
2023-08-12T04:12:52.159Z,98927.40
2023-08-12T04:14:55.556Z,98931.07
2023-08-12T04:16:59.427Z,98931.77
2023-08-12T04:19:02.550Z,98935.16
2023-08-12T04:21:06.949Z,98933.25
2023-08-12T04:23:09.827Z,98934.60
2023-08-12T04:25:12.568Z,98931.44
2023-08-12T04:27:17.443Z,98931.11
2023-08-12T04:29:20.346Z,98928.52
2023-08-12T04:31:23.844Z,98924.20
2023-08-12T04:33:28.085Z,98925.20
2023-08-12T04:35:34.773Z,98923.77
2023-08-12T04:37:39.744Z,98922.08
2023-08-12T04:39:43.736Z,98926.34
2023-08-12T04:41:46.505Z,98921.44
2023-08-12T04:43:50.278Z,98921.85
2023-08-12T04:45:54.013Z,98921.69
2023-08-12T04:47:58.449Z,98925.02
2023-08-12T04:50:01.383Z,98922.77
2023-08-12T04:52:05.354Z,98921.58
2023-08-12T04:54:09.027Z,98922.09
2023-08-12T04:56:11.956Z,98922.30
2023-08-12T04:58:15.328Z,98921.73
2023-08-12T05:00:18.834Z,98915.27
2023-08-12T05:02:22.457Z,98914.27
2023-08-12T05:04:25.746Z,98912.27
2023-08-12T05:06:29.659Z,98915.31
2023-08-12T05:08:33.302Z,98911.42
2023-08-12T05:10:36.415Z,98910.61
2023-08-12T05:12:40.316Z,98908.27
2023-08-12T05:14:44.007Z,98908.27
2023-08-12T05:16:46.942Z,98907.45
2023-08-12T05:18:51.468Z,98904.80
2023-08-12T05:20:55.593Z,98899.71
2023-08-12T05:22:59.906Z,98899.22
2023-08-12T05:25:05.034Z,98898.81
2023-08-12T05:27:08.177Z,98896.95
2023-08-12T05:29:11.403Z,98891.91
2023-08-12T05:31:15.300Z,98888.03
2023-08-12T05:33:18.390Z,98885.54
2023-08-12T05:35:22.154Z,98883.90
2023-08-12T05:37:26.565Z,98885.88
2023-08-12T05:39:29.239Z,98887.25
2023-08-12T05:41:33.726Z,98889.98
2023-08-12T05:43:38.644Z,98891.86
2023-08-12T05:45:41.421Z,98893.13
2023-08-12T05:47:47.999Z,98897.02
2023-08-12T05:49:52.483Z,98899.60
2023-08-12T05:51:55.812Z,98901.08
2023-08-12T05:54:00.896Z,98903.45
2023-08-12T05:56:03.892Z,98904.48
2023-08-12T05:58:08.165Z,98906.41
2023-08-12T06:00:14.499Z,98907.52
2023-08-12T06:02:28.105Z,98902.65
2023-08-12T06:04:31.081Z,98901.22
2023-08-12T06:06:34.285Z,98897.42
2023-08-12T06:08:40.272Z,98893.85
2023-08-12T06:10:43.101Z,98889.23
2023-08-12T06:12:49.830Z,98892.47
2023-08-12T06:14:53.278Z,98890.91
2023-08-12T06:16:59.279Z,98893.98
2023-08-12T06:19:03.618Z,98892.23
2023-08-12T06:21:07.957Z,98891.12
2023-08-12T06:23:11.943Z,98891.95
2023-08-12T06:25:15.279Z,98889.58
2023-08-12T06:27:20.589Z,98893.81
2023-08-12T06:29:25.936Z,98898.20
2023-08-12T06:31:32.211Z,98899.39
2023-08-12T06:33:35.579Z,98901.91
2023-08-12T06:35:41.358Z,98899.73
2023-08-12T06:37:47.074Z,98900.32
2023-08-12T06:39:50.153Z,98897.65
2023-08-12T06:41:53.853Z,98899.40
2023-08-12T06:43:58.784Z,98898.25
2023-08-12T06:46:03.075Z,98899.98
2023-08-12T06:48:08.494Z,98906.71
2023-08-12T06:50:11.544Z,98906.84
2023-08-12T06:52:18.013Z,98909.06
2023-08-12T06:54:24.028Z,98910.28
2023-08-12T06:56:26.914Z,98911.35
2023-08-12T06:58:30.361Z,98905.33
2023-08-12T07:00:33.553Z,98900.36
2023-08-12T07:02:43.962Z,98901.14
2023-08-12T07:04:47.942Z,98900.57
2023-08-12T07:06:51.132Z,98901.39
2023-08-12T07:08:55.035Z,98905.89
2023-08-12T07:10:57.988Z,98906.11
2023-08-12T07:13:01.992Z,98907.44
2023-08-12T07:15:09.081Z,98910.21
2023-08-12T07:17:12.580Z,98910.48
2023-08-12T07:19:17.155Z,98909.16
2023-08-12T07:21:22.047Z,98910.17
2023-08-12T07:23:28.310Z,98912.20
2023-08-12T07:25:31.387Z,98909.86
2023-08-12T07:27:35.013Z,98907.39
2023-08-12T07:29:43.090Z,98906.48
2023-08-12T07:31:50.379Z,98906.67
2023-08-12T07:33:56.950Z,98899.69
2023-08-12T07:36:00.589Z,98901.06
2023-08-12T07:38:03.420Z,98899.27
2023-08-12T07:40:06.785Z,98902.23
2023-08-12T07:42:10.968Z,98906.19
2023-08-12T07:44:14.219Z,98908.20
2023-08-12T07:46:17.049Z,98909.42
2023-08-12T07:48:20.993Z,98908.51
2023-08-12T07:50:27.080Z,98908.27
2023-08-12T07:52:34.156Z,98913.98
2023-08-12T07:54:39.052Z,98913.86
2023-08-12T07:56:42.121Z,98913.75
2023-08-12T07:58:47.310Z,98912.11
2023-08-12T08:00:54.842Z,98909.19
2023-08-12T08:02:57.631Z,98911.85
2023-08-12T08:05:21.997Z,98911.59
2023-08-12T08:07:24.631Z,98912.89
2023-08-12T08:09:29.051Z,98911.29
2023-08-12T08:11:35.803Z,98912.16
2023-08-12T08:13:44.857Z,98911.13
2023-08-12T08:15:49.482Z,98915.42
2023-08-12T08:17:55.185Z,98914.02
2023-08-12T08:19:58.557Z,98910.83
2023-08-12T08:22:07.321Z,98909.98
2023-08-12T08:24:21.491Z,98908.48
2023-08-12T08:26:30.056Z,98913.94
2023-08-12T08:28:41.828Z,98908.11
2023-08-12T08:31:08.527Z,98907.80
2023-08-12T08:33:15.436Z,98911.65
2023-08-12T08:35:19.560Z,98913.67
2023-08-12T08:37:24.176Z,98910.67
2023-08-12T08:39:37.102Z,98912.42
2023-08-12T08:41:50.894Z,98910.02
2023-08-12T08:43:56.966Z,98912.53
2023-08-12T08:46:04.495Z,98907.70
2023-08-12T08:48:09.811Z,98909.72
2023-08-12T08:50:13.426Z,98912.55
2023-08-12T08:52:17.487Z,98910.63
2023-08-12T08:54:20.824Z,98913.73
2023-08-12T08:56:24.920Z,98910.67
2023-08-12T08:58:31.473Z,98910.34
2023-08-12T09:00:38.672Z,98910.85
2023-08-12T09:02:45.926Z,98904.58
2023-08-12T09:04:51.957Z,98899.83
2023-08-12T09:06:58.040Z,98901.23
2023-08-12T09:09:07.338Z,98904.20
2023-08-12T09:11:13.694Z,98904.70
2023-08-12T09:13:21.024Z,98905.23
2023-08-12T09:15:26.652Z,98912.32
2023-08-12T09:17:33.929Z,98915.54
2023-08-12T09:19:38.935Z,98905.47
2023-08-12T09:21:44.944Z,98901.90
2023-08-12T09:23:48.793Z,98901.94
2023-08-12T09:25:56.936Z,98901.02
2023-08-12T09:28:04.761Z,98902.55
2023-08-12T09:30:11.514Z,98903.02
2023-08-12T09:32:20.138Z,98901.09
2023-08-12T09:34:25.472Z,98903.40
2023-08-12T09:36:34.133Z,98903.04
2023-08-12T09:38:42.867Z,98902.42
2023-08-12T09:40:55.701Z,98897.45
2023-08-12T09:43:02.022Z,98895.09
2023-08-12T09:45:06.422Z,98899.06
2023-08-12T09:47:11.640Z,98897.09
2023-08-12T09:49:22.718Z,98893.45
2023-08-12T09:51:27.626Z,98891.63
2023-08-12T09:53:31.764Z,98885.24
2023-08-12T09:55:37.600Z,98879.48
2023-08-12T09:57:43.931Z,98871.14
2023-08-12T09:59:50.643Z,98871.11
2023-08-12T10:01:57.487Z,98869.58
2023-08-12T10:04:07.845Z,98865.33
2023-08-12T10:06:16.878Z,98862.05
2023-08-12T10:08:21.061Z,98862.84
2023-08-12T10:10:27.940Z,98868.92
2023-08-12T10:12:40.900Z,98870.65
2023-08-12T10:14:48.871Z,98871.34
2023-08-12T10:17:04.388Z,98870.88
2023-08-12T10:19:15.073Z,98864.55
2023-08-12T10:21:22.818Z,98864.69
2023-08-12T10:23:33.595Z,98865.38
2023-08-12T10:25:39.500Z,98863.30
2023-08-12T10:27:43.540Z,98860.78
2023-08-12T10:29:50.784Z,98861.48
2023-08-12T10:31:54.540Z,98859.36
2023-08-12T10:34:03.052Z,98851.46
2023-08-12T10:38:34.050Z,98847.23
2023-08-12T10:40:38.627Z,98845.12
2023-08-12T10:42:46.270Z,98845.02
2023-08-12T10:45:02.314Z,98835.60
2023-08-12T10:47:11.948Z,98831.61
2023-08-12T10:49:16.380Z,98830.27
2023-08-12T10:51:20.062Z,98832.77
2023-08-12T10:53:32.932Z,98831.52
2023-08-12T10:55:42.217Z,98829.91
2023-08-12T10:58:02.865Z,98833.55
2023-08-12T11:00:25.692Z,98831.92
2023-08-12T11:02:36.838Z,98836.16
2023-08-12T11:04:44.427Z,98831.34
2023-08-12T11:06:48.662Z,98830.48
2023-08-12T11:08:57.872Z,98821.23
2023-08-12T11:11:03.264Z,98819.73
2023-08-12T11:13:06.271Z,98815.29
2023-08-12T11:15:12.008Z,98813.00
2023-08-12T11:17:18.765Z,98809.96
2023-08-12T11:19:27.047Z,98807.13
2023-08-12T11:21:42.405Z,98800.31
2023-08-12T11:23:51.055Z,98793.40
2023-08-12T11:26:02.106Z,98789.09
2023-08-12T11:28:16.096Z,98788.44
2023-08-12T11:30:21.528Z,98788.98
2023-08-12T11:32:25.010Z,98786.08
2023-08-12T11:34:30.764Z,98785.42
2023-08-12T11:36:34.866Z,98782.88
2023-08-12T11:38:54.891Z,98779.45
2023-08-12T11:41:06.021Z,98778.27
2023-08-12T11:43:11.279Z,98769.67
2023-08-12T11:45:26.103Z,98766.55
2023-08-12T11:47:30.808Z,98758.08
2023-08-12T11:49:33.944Z,98747.61
2023-08-12T11:51:59.604Z,98741.73
2023-08-12T11:54:06.570Z,98739.50
2023-08-12T11:56:17.881Z,98733.92
2023-08-12T11:58:52.591Z,98734.34
2023-08-12T12:01:03.227Z,98722.06
2023-08-12T12:03:09.051Z,98720.23
2023-08-12T12:05:15.500Z,98719.02
2023-08-12T12:07:25.422Z,98710.67
2023-08-12T12:09:42.673Z,98708.67
2023-08-12T12:11:49.378Z,98707.80
2023-08-12T12:13:55.246Z,98706.91
2023-08-12T12:16:00.053Z,98708.16
2023-08-12T12:18:11.990Z,98704.17
2023-08-12T12:20:15.872Z,98702.21
2023-08-12T12:22:20.669Z,98695.14
2023-08-12T12:24:36.324Z,98685.85
2023-08-12T12:26:43.328Z,98687.55
2023-08-12T12:28:47.895Z,98688.75
2023-08-12T12:30:51.157Z,98690.22
2023-08-12T12:32:55.209Z,98687.56
2023-08-12T12:35:01.433Z,98689.41
2023-08-12T12:37:04.554Z,98694.76
2023-08-12T12:39:09.211Z,98690.55
2023-08-12T12:41:12.366Z,98692.76
2023-08-12T12:43:16.945Z,98698.66
2023-08-12T12:45:20.028Z,98699.46
2023-08-12T12:47:32.653Z,98709.13
2023-08-12T12:49:42.508Z,98716.70
2023-08-12T12:51:46.355Z,98717.90
2023-08-12T12:53:49.643Z,98715.34
2023-08-12T12:55:53.564Z,98715.95
2023-08-12T12:57:58.482Z,98721.39
2023-08-12T13:00:06.951Z,98721.86
2023-08-12T13:02:11.866Z,98724.77
2023-08-12T13:04:17.322Z,98720.21
2023-08-12T13:06:32.876Z,98717.54
2023-08-12T13:08:37.822Z,98730.87
2023-08-12T13:10:43.733Z,98742.59
2023-08-12T13:12:54.146Z,98748.45
2023-08-12T13:15:00.303Z,98761.48
2023-08-12T13:17:08.150Z,98769.95
2023-08-12T13:19:11.943Z,98781.44
2023-08-12T13:21:17.519Z,98795.33
2023-08-12T13:23:22.194Z,98804.55
2023-08-12T13:25:26.039Z,98840.24
2023-08-12T13:27:29.412Z,98899.15
2023-08-12T13:29:33.637Z,98929.66
2023-08-12T13:31:36.730Z,98940.65
2023-08-12T13:33:40.568Z,98965.69
2023-08-12T13:35:44.509Z,98982.65
2023-08-12T13:37:50.412Z,98995.33
2023-08-12T13:39:53.842Z,99003.52
2023-08-12T13:41:59.129Z,99015.66
2023-08-12T13:44:03.472Z,99017.53
2023-08-12T13:46:43.305Z,99013.09
2023-08-12T13:48:48.771Z,99022.56
2023-08-12T13:50:55.049Z,99047.15
2023-08-12T13:53:00.870Z,99069.29
2023-08-12T13:55:16.270Z,99059.39
2023-08-12T13:57:22.018Z,99044.66
2023-08-12T13:59:25.014Z,99023.54
2023-08-12T14:01:29.115Z,99008.81
2023-08-12T14:03:35.166Z,99004.18
2023-08-12T14:05:55.558Z,99001.35
2023-08-12T14:08:01.592Z,98994.84
2023-08-12T14:10:07.162Z,98990.68
2023-08-12T14:12:15.665Z,98977.86
2023-08-12T14:14:28.796Z,98977.45
2023-08-12T14:16:59.373Z,98958.59
2023-08-12T14:19:18.935Z,98931.30
2023-08-12T14:21:25.470Z,98911.79
2023-08-12T14:23:32.649Z,98904.09
2023-08-12T14:25:37.971Z,98889.19
2023-08-12T14:27:46.852Z,98879.35
2023-08-12T14:29:51.790Z,98872.01
2023-08-12T14:31:54.845Z,98865.17
2023-08-12T14:33:57.768Z,98866.17
2023-08-12T14:36:04.374Z,98862.95
2023-08-12T14:38:43.513Z,98858.98
2023-08-12T14:40:49.811Z,98853.34
2023-08-12T14:42:56.629Z,98842.85
2023-08-12T14:45:08.203Z,98837.61
2023-08-12T14:47:12.599Z,98839.61
2023-08-12T14:49:19.588Z,98836.39
2023-08-12T14:51:24.502Z,98841.61
2023-08-12T14:54:06.766Z,98853.13
2023-08-12T14:56:14.563Z,98854.66
2023-08-12T14:58:20.477Z,98856.77
2023-08-12T15:00:28.140Z,98853.89
2023-08-12T15:02:42.292Z,98859.15
2023-08-12T15:05:03.792Z,98850.61
2023-08-12T15:07:11.360Z,98842.38
2023-08-12T15:09:26.869Z,98852.98
2023-08-12T15:11:31.554Z,98854.33
2023-08-12T15:13:37.946Z,98850.43
2023-08-12T15:15:43.345Z,98848.61
2023-08-12T15:17:46.420Z,98853.69
2023-08-12T15:19:53.057Z,98858.50
2023-08-12T15:21:57.609Z,98855.73
2023-08-12T15:24:08.359Z,98853.39
2023-08-12T15:26:29.343Z,98848.56
2023-08-12T15:28:42.745Z,98848.55
2023-08-12T15:30:56.848Z,98847.98
2023-08-12T15:33:25.957Z,98847.95
2023-08-12T15:35:30.313Z,98849.77
2023-08-12T15:37:37.133Z,98852.38
2023-08-12T15:39:42.823Z,98846.30
2023-08-12T15:41:50.694Z,98848.59
2023-08-12T15:43:55.038Z,98848.56
2023-08-12T15:45:58.489Z,98853.16
2023-08-12T15:48:04.041Z,98858.02
2023-08-12T15:52:58.965Z,98849.06
2023-08-12T15:55:04.292Z,98850.91
2023-08-12T15:57:12.002Z,98848.00
2023-08-12T15:59:23.445Z,98840.95
2023-08-12T16:01:38.658Z,98839.32
2023-08-12T16:03:45.812Z,98844.58
2023-08-12T16:05:59.004Z,98849.79
2023-08-12T16:08:12.665Z,98852.66
2023-08-12T16:10:16.949Z,98851.66
2023-08-12T16:12:34.207Z,98846.52
2023-08-12T16:14:41.974Z,98837.80
2023-08-12T16:16:47.003Z,98823.20
2023-08-12T16:18:53.325Z,98812.58
2023-08-12T16:21:00.630Z,98809.06
2023-08-12T16:23:05.356Z,98805.99
2023-08-12T16:25:11.103Z,98809.59
2023-08-12T16:27:15.959Z,98812.73
2023-08-12T16:29:21.307Z,98805.92
2023-08-12T16:33:57.324Z,98798.20
2023-08-12T16:36:03.897Z,98793.97
2023-08-12T16:38:20.121Z,98794.33
2023-08-12T16:40:30.095Z,98798.05
2023-08-12T16:42:55.384Z,98792.35
2023-08-12T16:45:07.773Z,98793.89
2023-08-12T16:47:32.596Z,98795.30
2023-08-12T16:49:50.952Z,98795.30
2023-08-12T16:52:07.536Z,98796.97
2023-08-12T16:54:28.111Z,98798.17
2023-08-12T16:56:32.826Z,98794.08
2023-08-12T16:58:45.811Z,98795.30
2023-08-12T17:00:51.018Z,98807.33
2023-08-12T17:03:03.221Z,98810.12
2023-08-12T17:05:29.639Z,98811.48
2023-08-12T17:07:34.092Z,98814.14
2023-08-12T17:09:42.678Z,98819.36
2023-08-12T17:11:47.735Z,98825.63
2023-08-12T17:13:53.419Z,98829.97
2023-08-12T17:15:58.628Z,98823.91
2023-08-12T17:18:05.704Z,98824.77
2023-08-12T17:20:13.093Z,98822.27
2023-08-12T17:22:17.232Z,98820.52
2023-08-12T17:24:21.437Z,98820.23
2023-08-12T17:26:54.967Z,98822.77
2023-08-12T17:28:59.140Z,98821.72
2023-08-12T17:31:07.401Z,98819.70
2023-08-12T17:33:27.448Z,98818.64
2023-08-12T17:36:23.338Z,98816.13
2023-08-12T17:38:28.561Z,98823.73
2023-08-12T17:40:33.108Z,98823.78
2023-08-12T17:42:41.164Z,98817.24
2023-08-12T17:44:45.941Z,98807.14
2023-08-12T17:46:50.517Z,98813.16
2023-08-12T17:48:58.078Z,98819.00
2023-08-12T17:51:35.262Z,98822.77
2023-08-12T17:53:48.101Z,98823.12
2023-08-12T17:55:51.794Z,98822.23
2023-08-12T17:58:00.593Z,98820.23
2023-08-12T18:00:09.075Z,98824.23
2023-08-12T18:02:21.384Z,98837.37
2023-08-12T18:04:36.570Z,98842.48
2023-08-12T18:06:48.438Z,98844.36
2023-08-12T18:08:55.455Z,98848.61
2023-08-12T18:11:05.135Z,98849.08
2023-08-12T18:13:08.404Z,98849.70
2023-08-12T18:15:14.273Z,98848.42
2023-08-12T18:17:34.437Z,98842.76
2023-08-12T18:19:40.844Z,98836.27
2023-08-12T18:21:44.188Z,98837.09
2023-08-12T18:23:50.156Z,98841.48
2023-08-12T18:25:54.935Z,98834.90
2023-08-12T18:27:58.547Z,98840.13
2023-08-12T18:30:12.155Z,98840.15
2023-08-12T18:34:42.031Z,98835.85
2023-08-12T18:36:52.550Z,98841.35
2023-08-12T18:38:58.369Z,98840.54
2023-08-12T18:41:01.428Z,98844.64
2023-08-12T18:43:07.053Z,98840.73
2023-08-12T18:45:12.570Z,98831.13
2023-08-12T18:47:17.861Z,98831.61
2023-08-12T18:52:00.729Z,98831.00
2023-08-12T18:54:05.888Z,98826.44
2023-08-12T18:56:10.931Z,98825.43
2023-08-12T18:58:14.853Z,98825.77
2023-08-12T19:00:20.424Z,98825.36
2023-08-12T19:02:24.506Z,98824.92
2023-08-12T19:04:27.955Z,98827.38
2023-08-12T19:06:34.749Z,98826.48
2023-08-12T19:08:41.347Z,98822.59
2023-08-12T19:10:54.700Z,98827.05
2023-08-12T19:13:00.225Z,98828.38
2023-08-12T19:15:13.290Z,98827.73
2023-08-12T19:17:20.373Z,98826.84
2023-08-12T19:19:27.335Z,98827.81
2023-08-12T19:21:33.785Z,98830.13
2023-08-12T19:23:58.706Z,98831.60
2023-08-12T19:26:05.649Z,98828.30
2023-08-12T19:28:09.712Z,98833.15
2023-08-12T19:30:20.838Z,98834.34
2023-08-12T19:32:28.352Z,98831.75
2023-08-12T19:37:02.546Z,98849.81
2023-08-12T19:39:20.965Z,98851.39
2023-08-12T19:41:24.567Z,98855.89
2023-08-12T19:43:32.920Z,98863.92
2023-08-12T19:45:36.250Z,98873.76
2023-08-12T19:47:41.663Z,98879.85
2023-08-12T19:49:44.742Z,98882.11
2023-08-12T19:51:47.520Z,98879.68
2023-08-12T19:53:56.442Z,98884.41
2023-08-12T19:56:25.347Z,98883.54
2023-08-12T19:58:46.086Z,98888.61
2023-08-12T20:00:51.006Z,98894.59
2023-08-12T20:02:58.389Z,98901.21
2023-08-12T20:05:02.479Z,98908.90
2023-08-12T20:07:08.907Z,98907.89
2023-08-12T20:09:15.081Z,98903.29
2023-08-12T20:11:37.869Z,98903.61
2023-08-12T20:13:51.060Z,98907.45
2023-08-12T20:16:01.144Z,98917.69
2023-08-12T20:18:18.007Z,98920.70
2023-08-12T20:20:21.836Z,98921.52
2023-08-12T20:22:27.773Z,98918.54
2023-08-12T20:24:36.575Z,98918.16
2023-08-12T20:26:42.269Z,98918.48
2023-08-12T20:28:47.835Z,98915.45
2023-08-12T20:30:52.637Z,98919.61
2023-08-12T20:32:57.219Z,98919.38
2023-08-12T20:35:03.844Z,98924.14
2023-08-12T20:37:08.462Z,98920.95
2023-08-12T20:39:14.783Z,98922.80
2023-08-12T20:41:28.042Z,98920.77
2023-08-12T20:43:41.489Z,98917.21
2023-08-12T20:45:45.213Z,98921.81
2023-08-12T20:47:50.675Z,98921.59
2023-08-12T20:49:58.355Z,98922.46
2023-08-12T20:52:03.636Z,98918.52
2023-08-12T20:54:13.434Z,98916.89
2023-08-12T20:56:51.668Z,98917.17
2023-08-12T20:58:55.950Z,98920.34
2023-08-12T21:01:04.131Z,98922.91
2023-08-12T21:03:13.518Z,98922.39
2023-08-12T21:05:22.575Z,98924.09
2023-08-12T21:07:27.915Z,98920.52
2023-08-12T21:09:37.750Z,98917.86
2023-08-12T21:11:51.763Z,98920.91
2023-08-12T21:13:58.686Z,98918.85
2023-08-12T21:16:02.604Z,98920.95
2023-08-12T21:18:23.161Z,98921.42
2023-08-12T21:20:27.492Z,98926.16
2023-08-12T21:22:30.843Z,98929.93
2023-08-12T21:24:56.409Z,98929.20
2023-08-12T21:27:01.253Z,98925.93
2023-08-12T21:29:08.523Z,98922.71
2023-08-12T21:31:13.884Z,98926.27
2023-08-12T21:33:18.136Z,98925.32
2023-08-12T21:35:24.336Z,98921.18
2023-08-12T21:37:30.740Z,98918.52
2023-08-12T21:39:53.770Z,98915.59
2023-08-12T21:42:00.918Z,98912.75
2023-08-12T21:44:07.341Z,98914.08
2023-08-12T21:46:15.761Z,98918.71
2023-08-12T21:48:21.555Z,98914.22
2023-08-12T21:50:30.482Z,98913.09
2023-08-12T21:52:37.563Z,98918.53
2023-08-12T21:54:49.686Z,98921.96
2023-08-12T21:56:56.304Z,98918.34
2023-08-12T21:59:01.803Z,98917.29
2023-08-12T22:01:06.445Z,98916.68
2023-08-12T22:03:12.453Z,98916.56
2023-08-12T22:05:15.957Z,98913.86
2023-08-12T22:07:22.305Z,98912.77
2023-08-12T22:09:29.468Z,98911.34
2023-08-12T22:11:38.355Z,98918.30
2023-08-12T22:13:50.520Z,98922.08
2023-08-12T22:15:55.172Z,98921.23
2023-08-12T22:17:58.329Z,98919.23
2023-08-12T22:20:06.444Z,98916.80
2023-08-12T22:22:23.340Z,98922.75
2023-08-12T22:24:29.535Z,98924.79
2023-08-12T22:26:32.400Z,98921.73
2023-08-12T22:28:37.799Z,98926.69
2023-08-12T22:30:44.885Z,98933.97
2023-08-12T22:32:49.677Z,98938.71
2023-08-12T22:34:56.493Z,98941.42
2023-08-12T22:37:03.106Z,98943.15
2023-08-12T22:39:11.044Z,98943.04
2023-08-12T22:41:16.345Z,98936.14
2023-08-12T22:43:22.782Z,98932.21
2023-08-12T22:45:29.339Z,98920.81
2023-08-12T22:47:43.366Z,98917.98
2023-08-12T22:49:46.996Z,98924.17
2023-08-12T22:51:58.491Z,98928.19
2023-08-12T22:54:08.329Z,98927.66
2023-08-12T22:56:18.083Z,98928.92
2023-08-12T22:58:24.948Z,98934.56
2023-08-12T23:00:29.642Z,98933.27
2023-08-12T23:02:35.135Z,98930.36
2023-08-12T23:04:38.459Z,98931.67
2023-08-12T23:06:50.712Z,98926.97
2023-08-12T23:08:55.614Z,98923.64
2023-08-12T23:10:59.814Z,98920.13
2023-08-12T23:13:05.849Z,98915.34
2023-08-12T23:15:32.874Z,98917.87
2023-08-12T23:17:36.507Z,98914.30
2023-08-12T23:19:40.509Z,98915.48
2023-08-12T23:21:48.522Z,98920.69
2023-08-12T23:23:53.947Z,98923.98
2023-08-12T23:26:01.542Z,98930.30
2023-08-12T23:28:05.126Z,98927.94
2023-08-12T23:30:33.890Z,98931.54
2023-08-12T23:32:44.196Z,98931.13
2023-08-12T23:34:49.841Z,98928.11
2023-08-12T23:36:53.106Z,98927.05
2023-08-12T23:38:57.240Z,98924.35
2023-08-12T23:41:03.206Z,98927.41
2023-08-12T23:43:08.877Z,98928.91
2023-08-12T23:45:16.228Z,98931.77
2023-08-12T23:47:20.296Z,98932.04
2023-08-12T23:49:31.711Z,98931.48
2023-08-12T23:51:42.114Z,98933.27
2023-08-12T23:53:52.123Z,98929.80
2023-08-12T23:55:57.554Z,98932.19
2023-08-12T23:58:10.448Z,98933.21
